sensor_id;sensor_type;location;lat;lon;timestamp;temperature;humidity
60848;DHT22;46681;47.696;9.140;2024-02-23T00:01:06;10.70;62.20
60848;DHT22;46681;47.696;9.140;2024-02-23T00:03:31;10.80;62.60
60848;DHT22;46681;47.696;9.140;2024-02-23T00:05:58;10.70;62.70
60848;DHT22;46681;47.696;9.140;2024-02-23T00:08:24;10.80;62.40
60848;DHT22;46681;47.696;9.140;2024-02-23T00:10:51;10.80;62.40
60848;DHT22;46681;47.696;9.140;2024-02-23T00:13:17;10.80;62.40
60848;DHT22;46681;47.696;9.140;2024-02-23T00:15:42;10.80;62.40
60848;DHT22;46681;47.696;9.140;2024-02-23T00:18:08;10.80;62.40
60848;DHT22;46681;47.696;9.140;2024-02-23T00:20:33;10.70;62.10
60848;DHT22;46681;47.696;9.140;2024-02-23T00:22:59;10.70;62.10
60848;DHT22;46681;47.696;9.140;2024-02-23T00:25:24;10.70;62.10
60848;DHT22;46681;47.696;9.140;2024-02-23T00:27:50;10.70;61.50
60848;DHT22;46681;47.696;9.140;2024-02-23T00:30:15;10.60;61.50
60848;DHT22;46681;47.696;9.140;2024-02-23T00:32:41;10.60;61.70
60848;DHT22;46681;47.696;9.140;2024-02-23T00:35:06;10.70;61.40
60848;DHT22;46681;47.696;9.140;2024-02-23T00:37:32;10.70;61.50
60848;DHT22;46681;47.696;9.140;2024-02-23T00:39:59;10.70;61.30
60848;DHT22;46681;47.696;9.140;2024-02-23T00:42:25;10.70;61.20
60848;DHT22;46681;47.696;9.140;2024-02-23T00:44:50;10.60;60.70
60848;DHT22;46681;47.696;9.140;2024-02-23T00:47:16;10.70;60.90
60848;DHT22;46681;47.696;9.140;2024-02-23T00:49:41;10.70;60.40
60848;DHT22;46681;47.696;9.140;2024-02-23T00:52:07;10.70;60.60
60848;DHT22;46681;47.696;9.140;2024-02-23T00:54:32;10.70;60.60
60848;DHT22;46681;47.696;9.140;2024-02-23T00:56:58;10.70;60.50
60848;DHT22;46681;47.696;9.140;2024-02-23T00:59:23;10.70;60.20
60848;DHT22;46681;47.696;9.140;2024-02-23T01:01:49;10.70;60.20
60848;DHT22;46681;47.696;9.140;2024-02-23T01:04:14;10.70;60.10
60848;DHT22;46681;47.696;9.140;2024-02-23T01:06:40;10.70;59.90
60848;DHT22;46681;47.696;9.140;2024-02-23T01:09:05;10.70;59.90
60848;DHT22;46681;47.696;9.140;2024-02-23T01:11:31;10.80;59.80
60848;DHT22;46681;47.696;9.140;2024-02-23T01:13:59;10.80;59.60
60848;DHT22;46681;47.696;9.140;2024-02-23T01:16:26;10.70;59.50
60848;DHT22;46681;47.696;9.140;2024-02-23T01:18:52;10.70;59.50
60848;DHT22;46681;47.696;9.140;2024-02-23T01:21:17;10.70;59.30
60848;DHT22;46681;47.696;9.140;2024-02-23T01:23:43;10.70;59.40
60848;DHT22;46681;47.696;9.140;2024-02-23T01:26:08;10.70;59.20
60848;DHT22;46681;47.696;9.140;2024-02-23T01:28:34;10.70;59.20
60848;DHT22;46681;47.696;9.140;2024-02-23T01:30:59;10.70;58.90
60848;DHT22;46681;47.696;9.140;2024-02-23T01:33:25;10.70;58.90
60848;DHT22;46681;47.696;9.140;2024-02-23T01:35:50;10.70;59.00
60848;DHT22;46681;47.696;9.140;2024-02-23T01:38:17;10.60;59.20
60848;DHT22;46681;47.696;9.140;2024-02-23T01:40:43;10.60;59.10
60848;DHT22;46681;47.696;9.140;2024-02-23T01:43:08;10.60;59.00
60848;DHT22;46681;47.696;9.140;2024-02-23T01:45:37;10.50;59.20
60848;DHT22;46681;47.696;9.140;2024-02-23T01:48:02;10.50;59.10
60848;DHT22;46681;47.696;9.140;2024-02-23T01:50:29;10.50;59.20
60848;DHT22;46681;47.696;9.140;2024-02-23T01:52:57;10.40;59.40
60848;DHT22;46681;47.696;9.140;2024-02-23T01:55:24;10.50;59.40
60848;DHT22;46681;47.696;9.140;2024-02-23T01:57:50;10.40;59.40
60848;DHT22;46681;47.696;9.140;2024-02-23T02:00:17;10.40;59.00
60848;DHT22;46681;47.696;9.140;2024-02-23T02:02:47;10.30;59.20
60848;DHT22;46681;47.696;9.140;2024-02-23T02:05:13;10.30;59.20
60848;DHT22;46681;47.696;9.140;2024-02-23T02:07:40;10.30;59.20
60848;DHT22;46681;47.696;9.140;2024-02-23T02:10:08;10.30;59.20
60848;DHT22;46681;47.696;9.140;2024-02-23T02:12:34;10.30;59.70
60848;DHT22;46681;47.696;9.140;2024-02-23T02:14:59;10.30;59.30
60848;DHT22;46681;47.696;9.140;2024-02-23T02:17:25;10.30;59.40
60848;DHT22;46681;47.696;9.140;2024-02-23T02:19:50;10.30;59.20
60848;DHT22;46681;47.696;9.140;2024-02-23T02:22:17;10.30;59.10
60848;DHT22;46681;47.696;9.140;2024-02-23T02:24:42;10.30;59.10
60848;DHT22;46681;47.696;9.140;2024-02-23T02:27:08;10.30;59.10
60848;DHT22;46681;47.696;9.140;2024-02-23T02:29:35;10.30;59.20
60848;DHT22;46681;47.696;9.140;2024-02-23T02:32:00;10.30;58.70
60848;DHT22;46681;47.696;9.140;2024-02-23T02:34:33;10.30;58.90
60848;DHT22;46681;47.696;9.140;2024-02-23T02:37:00;10.30;58.70
60848;DHT22;46681;47.696;9.140;2024-02-23T02:39:27;10.30;58.80
60848;DHT22;46681;47.696;9.140;2024-02-23T02:41:52;10.30;58.80
60848;DHT22;46681;47.696;9.140;2024-02-23T02:44:18;10.30;58.70
60848;DHT22;46681;47.696;9.140;2024-02-23T02:46:43;10.40;58.60
60848;DHT22;46681;47.696;9.140;2024-02-23T02:49:09;10.40;58.60
60848;DHT22;46681;47.696;9.140;2024-02-23T02:51:34;10.40;58.60
60848;DHT22;46681;47.696;9.140;2024-02-23T02:54:00;10.40;58.40
60848;DHT22;46681;47.696;9.140;2024-02-23T02:56:28;10.40;58.50
60848;DHT22;46681;47.696;9.140;2024-02-23T02:58:54;10.40;58.50
60848;DHT22;46681;47.696;9.140;2024-02-23T03:01:19;10.40;58.20
60848;DHT22;46681;47.696;9.140;2024-02-23T03:03:46;10.40;58.40
60848;DHT22;46681;47.696;9.140;2024-02-23T03:06:12;10.40;58.70
60848;DHT22;46681;47.696;9.140;2024-02-23T03:08:44;10.40;58.20
60848;DHT22;46681;47.696;9.140;2024-02-23T03:11:09;10.40;58.20
60848;DHT22;46681;47.696;9.140;2024-02-23T03:13:35;10.40;58.20
60848;DHT22;46681;47.696;9.140;2024-02-23T03:16:00;10.30;58.10
60848;DHT22;46681;47.696;9.140;2024-02-23T03:18:26;10.30;58.20
60848;DHT22;46681;47.696;9.140;2024-02-23T03:20:54;10.30;58.20
60848;DHT22;46681;47.696;9.140;2024-02-23T03:23:20;10.30;58.20
60848;DHT22;46681;47.696;9.140;2024-02-23T03:25:45;10.30;58.10
60848;DHT22;46681;47.696;9.140;2024-02-23T03:28:13;10.30;58.00
60848;DHT22;46681;47.696;9.140;2024-02-23T03:30:39;10.40;57.80
60848;DHT22;46681;47.696;9.140;2024-02-23T03:33:04;10.30;57.80
60848;DHT22;46681;47.696;9.140;2024-02-23T03:35:30;10.40;57.80
60848;DHT22;46681;47.696;9.140;2024-02-23T03:37:55;10.30;57.80
60848;DHT22;46681;47.696;9.140;2024-02-23T03:40:21;10.30;57.90
60848;DHT22;46681;47.696;9.140;2024-02-23T03:42:46;10.30;57.90
60848;DHT22;46681;47.696;9.140;2024-02-23T03:45:12;10.30;58.30
60848;DHT22;46681;47.696;9.140;2024-02-23T03:47:38;10.40;57.80
60848;DHT22;46681;47.696;9.140;2024-02-23T03:50:04;10.40;57.70
60848;DHT22;46681;47.696;9.140;2024-02-23T03:52:29;10.40;57.70
60848;DHT22;46681;47.696;9.140;2024-02-23T03:54:55;10.40;57.70
60848;DHT22;46681;47.696;9.140;2024-02-23T03:57:20;10.30;57.60
60848;DHT22;46681;47.696;9.140;2024-02-23T03:59:53;10.30;57.70
60848;DHT22;46681;47.696;9.140;2024-02-23T04:02:19;10.30;57.50
60848;DHT22;46681;47.696;9.140;2024-02-23T04:04:44;10.30;57.70
60848;DHT22;46681;47.696;9.140;2024-02-23T04:07:10;10.30;57.50
60848;DHT22;46681;47.696;9.140;2024-02-23T04:09:36;10.30;57.50
60848;DHT22;46681;47.696;9.140;2024-02-23T04:12:03;10.30;57.40
60848;DHT22;46681;47.696;9.140;2024-02-23T04:14:28;10.30;57.40
60848;DHT22;46681;47.696;9.140;2024-02-23T04:16:54;10.30;57.40
60848;DHT22;46681;47.696;9.140;2024-02-23T04:19:19;10.30;57.30
60848;DHT22;46681;47.696;9.140;2024-02-23T04:21:45;10.30;57.20
60848;DHT22;46681;47.696;9.140;2024-02-23T04:24:10;10.30;57.20
60848;DHT22;46681;47.696;9.140;2024-02-23T04:26:36;10.40;57.20
60848;DHT22;46681;47.696;9.140;2024-02-23T04:29:01;10.40;57.10
60848;DHT22;46681;47.696;9.140;2024-02-23T04:31:27;10.40;57.10
60848;DHT22;46681;47.696;9.140;2024-02-23T04:33:52;10.50;57.10
60848;DHT22;46681;47.696;9.140;2024-02-23T04:36:21;10.50;57.10
60848;DHT22;46681;47.696;9.140;2024-02-23T04:38:46;10.50;57.10
60848;DHT22;46681;47.696;9.140;2024-02-23T04:41:12;10.50;57.10
60848;DHT22;46681;47.696;9.140;2024-02-23T04:43:39;10.50;57.00
60848;DHT22;46681;47.696;9.140;2024-02-23T04:46:05;10.60;57.00
60848;DHT22;46681;47.696;9.140;2024-02-23T04:48:30;10.60;57.60
60848;DHT22;46681;47.696;9.140;2024-02-23T04:50:56;10.60;57.50
60848;DHT22;46681;47.696;9.140;2024-02-23T04:53:23;10.70;57.50
60848;DHT22;46681;47.696;9.140;2024-02-23T04:55:49;10.70;57.50
60848;DHT22;46681;47.696;9.140;2024-02-23T04:58:14;10.70;57.40
60848;DHT22;46681;47.696;9.140;2024-02-23T05:00:40;10.80;57.30
60848;DHT22;46681;47.696;9.140;2024-02-23T05:03:07;10.80;57.40
60848;DHT22;46681;47.696;9.140;2024-02-23T05:05:35;10.70;57.30
60848;DHT22;46681;47.696;9.140;2024-02-23T05:08:01;10.80;57.50
60848;DHT22;46681;47.696;9.140;2024-02-23T05:10:29;10.80;57.40
60848;DHT22;46681;47.696;9.140;2024-02-23T05:12:55;10.80;57.40
60848;DHT22;46681;47.696;9.140;2024-02-23T05:15:20;10.80;57.30
60848;DHT22;46681;47.696;9.140;2024-02-23T05:17:46;10.90;57.30
60848;DHT22;46681;47.696;9.140;2024-02-23T05:20:12;10.90;57.10
60848;DHT22;46681;47.696;9.140;2024-02-23T05:22:39;11.00;57.00
60848;DHT22;46681;47.696;9.140;2024-02-23T05:25:05;11.10;56.90
60848;DHT22;46681;47.696;9.140;2024-02-23T05:27:32;11.20;56.80
60848;DHT22;46681;47.696;9.140;2024-02-23T05:29:58;11.30;56.40
60848;DHT22;46681;47.696;9.140;2024-02-23T05:32:27;11.30;56.20
60848;DHT22;46681;47.696;9.140;2024-02-23T05:34:53;11.40;56.20
60848;DHT22;46681;47.696;9.140;2024-02-23T05:37:19;11.50;57.90
60848;DHT22;46681;47.696;9.140;2024-02-23T05:39:54;11.60;57.80
60848;DHT22;46681;47.696;9.140;2024-02-23T05:42:24;11.70;57.40
60848;DHT22;46681;47.696;9.140;2024-02-23T05:44:50;11.70;58.10
60848;DHT22;46681;47.696;9.140;2024-02-23T05:47:17;11.70;56.40
60848;DHT22;46681;47.696;9.140;2024-02-23T05:49:44;11.70;56.10
60848;DHT22;46681;47.696;9.140;2024-02-23T05:52:10;11.70;55.70
60848;DHT22;46681;47.696;9.140;2024-02-23T05:54:38;11.70;55.40
60848;DHT22;46681;47.696;9.140;2024-02-23T05:57:05;11.80;55.20
60848;DHT22;46681;47.696;9.140;2024-02-23T05:59:31;11.80;56.40
60848;DHT22;46681;47.696;9.140;2024-02-23T06:01:58;11.90;56.60
60848;DHT22;46681;47.696;9.140;2024-02-23T06:04:26;11.90;56.20
60848;DHT22;46681;47.696;9.140;2024-02-23T06:06:55;11.90;55.80
60848;DHT22;46681;47.696;9.140;2024-02-23T06:09:23;11.80;55.20
60848;DHT22;46681;47.696;9.140;2024-02-23T06:11:52;11.80;55.60
60848;DHT22;46681;47.696;9.140;2024-02-23T06:14:23;11.80;56.00
60848;DHT22;46681;47.696;9.140;2024-02-23T06:16:50;11.90;55.60
60848;DHT22;46681;47.696;9.140;2024-02-23T06:19:16;11.90;55.40
60848;DHT22;46681;47.696;9.140;2024-02-23T06:21:42;12.00;56.70
60848;DHT22;46681;47.696;9.140;2024-02-23T06:24:08;11.90;56.60
60848;DHT22;46681;47.696;9.140;2024-02-23T06:26:36;11.90;56.20
60848;DHT22;46681;47.696;9.140;2024-02-23T06:29:01;11.90;56.10
60848;DHT22;46681;47.696;9.140;2024-02-23T06:31:27;11.90;55.70
60848;DHT22;46681;47.696;9.140;2024-02-23T06:33:54;11.90;55.30
60848;DHT22;46681;47.696;9.140;2024-02-23T06:36:22;12.00;55.10
60848;DHT22;46681;47.696;9.140;2024-02-23T06:38:50;12.00;54.80
60848;DHT22;46681;47.696;9.140;2024-02-23T06:41:16;12.00;54.60
60848;DHT22;46681;47.696;9.140;2024-02-23T06:43:45;12.00;54.60
60848;DHT22;46681;47.696;9.140;2024-02-23T06:46:12;12.00;54.50
60848;DHT22;46681;47.696;9.140;2024-02-23T06:48:38;12.00;54.40
60848;DHT22;46681;47.696;9.140;2024-02-23T06:51:05;12.00;54.40
60848;DHT22;46681;47.696;9.140;2024-02-23T06:53:37;12.00;54.20
60848;DHT22;46681;47.696;9.140;2024-02-23T06:56:03;12.00;54.20
60848;DHT22;46681;47.696;9.140;2024-02-23T06:58:29;12.00;54.10
60848;DHT22;46681;47.696;9.140;2024-02-23T07:00:59;12.00;54.00
60848;DHT22;46681;47.696;9.140;2024-02-23T07:03:30;12.00;54.00
60848;DHT22;46681;47.696;9.140;2024-02-23T07:05:59;12.00;54.00
60848;DHT22;46681;47.696;9.140;2024-02-23T07:08:25;12.00;54.00
60848;DHT22;46681;47.696;9.140;2024-02-23T07:10:51;12.00;54.00
60848;DHT22;46681;47.696;9.140;2024-02-23T07:13:17;12.00;54.00
60848;DHT22;46681;47.696;9.140;2024-02-23T07:15:43;12.00;53.90
60848;DHT22;46681;47.696;9.140;2024-02-23T07:18:13;12.00;53.80
60848;DHT22;46681;47.696;9.140;2024-02-23T07:20:39;12.00;53.90
60848;DHT22;46681;47.696;9.140;2024-02-23T07:23:08;12.00;53.90
60848;DHT22;46681;47.696;9.140;2024-02-23T07:25:41;12.00;53.80
60848;DHT22;46681;47.696;9.140;2024-02-23T07:28:09;12.00;53.80
60848;DHT22;46681;47.696;9.140;2024-02-23T07:30:40;12.10;53.80
60848;DHT22;46681;47.696;9.140;2024-02-23T07:33:05;12.10;53.80
60848;DHT22;46681;47.696;9.140;2024-02-23T07:35:31;12.10;53.80
60848;DHT22;46681;47.696;9.140;2024-02-23T07:37:58;12.10;53.80
60848;DHT22;46681;47.696;9.140;2024-02-23T07:40:33;12.10;53.70
60848;DHT22;46681;47.696;9.140;2024-02-23T07:43:08;12.10;53.80
60848;DHT22;46681;47.696;9.140;2024-02-23T07:45:40;12.10;53.70
60848;DHT22;46681;47.696;9.140;2024-02-23T07:48:07;12.10;53.70
60848;DHT22;46681;47.696;9.140;2024-02-23T07:50:40;12.10;53.70
60848;DHT22;46681;47.696;9.140;2024-02-23T07:53:06;12.10;53.80
60848;DHT22;46681;47.696;9.140;2024-02-23T07:55:31;12.10;53.80
60848;DHT22;46681;47.696;9.140;2024-02-23T07:58:00;12.10;53.80
60848;DHT22;46681;47.696;9.140;2024-02-23T08:00:33;12.10;53.80
60848;DHT22;46681;47.696;9.140;2024-02-23T08:03:00;12.10;53.90
60848;DHT22;46681;47.696;9.140;2024-02-23T08:05:25;12.10;53.80
60848;DHT22;46681;47.696;9.140;2024-02-23T08:07:56;12.10;53.80
60848;DHT22;46681;47.696;9.140;2024-02-23T08:10:22;12.10;53.80
60848;DHT22;46681;47.696;9.140;2024-02-23T08:12:48;12.10;53.90
60848;DHT22;46681;47.696;9.140;2024-02-23T08:15:15;12.10;53.90
60848;DHT22;46681;47.696;9.140;2024-02-23T08:17:45;12.10;53.80
60848;DHT22;46681;47.696;9.140;2024-02-23T08:20:13;12.10;53.90
60848;DHT22;46681;47.696;9.140;2024-02-23T08:22:38;12.20;53.80
60848;DHT22;46681;47.696;9.140;2024-02-23T08:25:04;12.20;53.80
60848;DHT22;46681;47.696;9.140;2024-02-23T08:27:30;12.20;53.90
60848;DHT22;46681;47.696;9.140;2024-02-23T08:29:55;12.20;53.80
60848;DHT22;46681;47.696;9.140;2024-02-23T08:32:23;12.20;53.80
60848;DHT22;46681;47.696;9.140;2024-02-23T08:34:56;12.20;53.80
60848;DHT22;46681;47.696;9.140;2024-02-23T08:37:26;12.20;53.70
60848;DHT22;46681;47.696;9.140;2024-02-23T08:39:52;12.20;53.70
60848;DHT22;46681;47.696;9.140;2024-02-23T08:42:18;12.20;53.70
60848;DHT22;46681;47.696;9.140;2024-02-23T08:44:52;12.30;53.80
60848;DHT22;46681;47.696;9.140;2024-02-23T08:47:19;12.30;53.80
60848;DHT22;46681;47.696;9.140;2024-02-23T08:49:52;12.30;53.80
60848;DHT22;46681;47.696;9.140;2024-02-23T08:52:18;12.20;53.80
60848;DHT22;46681;47.696;9.140;2024-02-23T08:54:45;12.30;53.80
60848;DHT22;46681;47.696;9.140;2024-02-23T08:57:11;12.30;53.80
60848;DHT22;46681;47.696;9.140;2024-02-23T08:59:38;12.30;53.80
60848;DHT22;46681;47.696;9.140;2024-02-23T09:02:04;12.30;53.80
60848;DHT22;46681;47.696;9.140;2024-02-23T09:04:37;12.30;53.80
60848;DHT22;46681;47.696;9.140;2024-02-23T09:07:03;12.30;53.80
60848;DHT22;46681;47.696;9.140;2024-02-23T09:09:32;12.30;53.70
60848;DHT22;46681;47.696;9.140;2024-02-23T09:11:59;12.30;53.80
60848;DHT22;46681;47.696;9.140;2024-02-23T09:14:24;12.40;53.80
60848;DHT22;46681;47.696;9.140;2024-02-23T09:16:50;12.40;53.70
60848;DHT22;46681;47.696;9.140;2024-02-23T09:19:17;12.40;54.20
60848;DHT22;46681;47.696;9.140;2024-02-23T09:21:50;12.40;53.90
60848;DHT22;46681;47.696;9.140;2024-02-23T09:24:28;12.40;53.80
60848;DHT22;46681;47.696;9.140;2024-02-23T09:26:56;12.40;54.20
60848;DHT22;46681;47.696;9.140;2024-02-23T09:29:22;12.40;53.80
60848;DHT22;46681;47.696;9.140;2024-02-23T09:31:48;12.40;53.80
60848;DHT22;46681;47.696;9.140;2024-02-23T09:34:18;12.40;53.80
60848;DHT22;46681;47.696;9.140;2024-02-23T09:36:45;12.40;53.80
60848;DHT22;46681;47.696;9.140;2024-02-23T09:39:22;12.40;53.70
60848;DHT22;46681;47.696;9.140;2024-02-23T09:41:51;12.50;53.80
60848;DHT22;46681;47.696;9.140;2024-02-23T09:44:22;12.50;53.80
60848;DHT22;46681;47.696;9.140;2024-02-23T09:46:48;12.50;53.70
60848;DHT22;46681;47.696;9.140;2024-02-23T09:49:25;12.50;53.60
60848;DHT22;46681;47.696;9.140;2024-02-23T09:51:51;12.50;53.60
60848;DHT22;46681;47.696;9.140;2024-02-23T09:54:21;12.40;53.50
60848;DHT22;46681;47.696;9.140;2024-02-23T09:56:50;12.40;53.50
60848;DHT22;46681;47.696;9.140;2024-02-23T09:59:20;12.50;53.50
60848;DHT22;46681;47.696;9.140;2024-02-23T10:01:47;12.50;53.50
60848;DHT22;46681;47.696;9.140;2024-02-23T10:04:18;12.50;53.40
60848;DHT22;46681;47.696;9.140;2024-02-23T10:06:51;12.50;53.40
60848;DHT22;46681;47.696;9.140;2024-02-23T10:09:17;12.50;53.40
60848;DHT22;46681;47.696;9.140;2024-02-23T10:11:45;12.50;53.40
60848;DHT22;46681;47.696;9.140;2024-02-23T10:14:11;12.50;53.40
60848;DHT22;46681;47.696;9.140;2024-02-23T10:16:38;12.50;53.30
60848;DHT22;46681;47.696;9.140;2024-02-23T10:19:10;12.50;53.30
60848;DHT22;46681;47.696;9.140;2024-02-23T10:21:57;12.50;53.20
60848;DHT22;46681;47.696;9.140;2024-02-23T10:24:23;12.50;53.10
60848;DHT22;46681;47.696;9.140;2024-02-23T10:26:49;12.60;53.20
60848;DHT22;46681;47.696;9.140;2024-02-23T10:29:19;12.60;53.10
60848;DHT22;46681;47.696;9.140;2024-02-23T10:31:52;12.60;53.00
60848;DHT22;46681;47.696;9.140;2024-02-23T10:34:24;12.60;53.00
60848;DHT22;46681;47.696;9.140;2024-02-23T10:36:53;12.60;53.00
60848;DHT22;46681;47.696;9.140;2024-02-23T10:39:19;12.60;52.90
60848;DHT22;46681;47.696;9.140;2024-02-23T10:42:02;12.60;52.80
60848;DHT22;46681;47.696;9.140;2024-02-23T10:44:36;12.60;52.80
60848;DHT22;46681;47.696;9.140;2024-02-23T10:47:18;12.60;52.70
60848;DHT22;46681;47.696;9.140;2024-02-23T10:49:50;12.60;52.70
60848;DHT22;46681;47.696;9.140;2024-02-23T10:52:18;12.70;52.60
60848;DHT22;46681;47.696;9.140;2024-02-23T10:54:49;12.70;52.60
60848;DHT22;46681;47.696;9.140;2024-02-23T10:57:23;12.70;52.50
60848;DHT22;46681;47.696;9.140;2024-02-23T10:59:52;12.60;52.40
60848;DHT22;46681;47.696;9.140;2024-02-23T11:02:24;12.70;52.50
60848;DHT22;46681;47.696;9.140;2024-02-23T11:04:59;12.70;52.50
60848;DHT22;46681;47.696;9.140;2024-02-23T11:07:29;12.70;52.40
60848;DHT22;46681;47.696;9.140;2024-02-23T11:13:10;12.70;52.30
60848;DHT22;46681;47.696;9.140;2024-02-23T11:15:41;12.70;52.30
60848;DHT22;46681;47.696;9.140;2024-02-23T11:18:29;12.70;52.20
60848;DHT22;46681;47.696;9.140;2024-02-23T11:21:05;12.70;52.20
60848;DHT22;46681;47.696;9.140;2024-02-23T11:23:48;12.70;52.10
60848;DHT22;46681;47.696;9.140;2024-02-23T11:26:31;12.70;52.10
60848;DHT22;46681;47.696;9.140;2024-02-23T11:29:25;12.70;52.00
60848;DHT22;46681;47.696;9.140;2024-02-23T11:31:52;12.80;52.00
60848;DHT22;46681;47.696;9.140;2024-02-23T11:34:23;12.80;51.90
60848;DHT22;46681;47.696;9.140;2024-02-23T11:36:53;12.80;51.90
60848;DHT22;46681;47.696;9.140;2024-02-23T11:39:20;12.80;51.80
60848;DHT22;46681;47.696;9.140;2024-02-23T11:41:49;12.90;51.80
60848;DHT22;46681;47.696;9.140;2024-02-23T11:44:15;12.90;51.70
60848;DHT22;46681;47.696;9.140;2024-02-23T11:46:44;12.90;51.60
60848;DHT22;46681;47.696;9.140;2024-02-23T11:49:09;13.00;51.50
60848;DHT22;46681;47.696;9.140;2024-02-23T11:51:40;13.00;51.50
60848;DHT22;46681;47.696;9.140;2024-02-23T11:54:10;13.00;51.40
60848;DHT22;46681;47.696;9.140;2024-02-23T11:56:42;13.10;51.40
60848;DHT22;46681;47.696;9.140;2024-02-23T11:59:11;13.10;51.40
60848;DHT22;46681;47.696;9.140;2024-02-23T12:01:41;13.10;51.40
60848;DHT22;46681;47.696;9.140;2024-02-23T12:04:11;13.10;51.30
60848;DHT22;46681;47.696;9.140;2024-02-23T12:06:38;13.10;51.20
60848;DHT22;46681;47.696;9.140;2024-02-23T12:09:05;13.10;51.10
60848;DHT22;46681;47.696;9.140;2024-02-23T12:11:33;13.20;51.10
60848;DHT22;46681;47.696;9.140;2024-02-23T12:14:06;13.20;51.10
60848;DHT22;46681;47.696;9.140;2024-02-23T12:16:34;13.20;51.10
60848;DHT22;46681;47.696;9.140;2024-02-23T12:19:08;13.20;51.00
60848;DHT22;46681;47.696;9.140;2024-02-23T12:21:34;13.30;51.00
60848;DHT22;46681;47.696;9.140;2024-02-23T12:24:05;13.30;50.90
60848;DHT22;46681;47.696;9.140;2024-02-23T12:26:32;13.30;50.80
60848;DHT22;46681;47.696;9.140;2024-02-23T12:29:04;13.30;50.90
60848;DHT22;46681;47.696;9.140;2024-02-23T12:31:32;13.30;51.20
60848;DHT22;46681;47.696;9.140;2024-02-23T12:33:58;13.40;51.90
60848;DHT22;46681;47.696;9.140;2024-02-23T12:36:36;13.30;52.00
60848;DHT22;46681;47.696;9.140;2024-02-23T12:39:02;13.40;52.50
60848;DHT22;46681;47.696;9.140;2024-02-23T12:41:34;13.40;51.60
60848;DHT22;46681;47.696;9.140;2024-02-23T12:44:00;13.50;51.40
60848;DHT22;46681;47.696;9.140;2024-02-23T12:46:27;13.50;51.10
60848;DHT22;46681;47.696;9.140;2024-02-23T12:48:57;13.50;50.90
60848;DHT22;46681;47.696;9.140;2024-02-23T12:51:33;13.50;50.60
60848;DHT22;46681;47.696;9.140;2024-02-23T12:54:14;13.50;50.50
60848;DHT22;46681;47.696;9.140;2024-02-23T12:56:43;13.50;50.30
60848;DHT22;46681;47.696;9.140;2024-02-23T12:59:10;13.50;50.20
60848;DHT22;46681;47.696;9.140;2024-02-23T13:01:41;13.50;50.10
60848;DHT22;46681;47.696;9.140;2024-02-23T13:04:09;13.60;50.00
60848;DHT22;46681;47.696;9.140;2024-02-23T13:06:38;13.60;49.90
60848;DHT22;46681;47.696;9.140;2024-02-23T13:09:06;13.60;49.60
60848;DHT22;46681;47.696;9.140;2024-02-23T13:11:33;13.60;49.70
60848;DHT22;46681;47.696;9.140;2024-02-23T13:14:02;13.60;49.70
60848;DHT22;46681;47.696;9.140;2024-02-23T13:16:28;13.60;49.70
60848;DHT22;46681;47.696;9.140;2024-02-23T13:19:04;13.60;49.80
60848;DHT22;46681;47.696;9.140;2024-02-23T13:21:30;13.60;49.90
60848;DHT22;46681;47.696;9.140;2024-02-23T13:23:56;13.60;50.10
60848;DHT22;46681;47.696;9.140;2024-02-23T13:26:24;13.60;49.90
60848;DHT22;46681;47.696;9.140;2024-02-23T13:28:54;13.70;49.90
60848;DHT22;46681;47.696;9.140;2024-02-23T13:31:22;13.60;49.70
60848;DHT22;46681;47.696;9.140;2024-02-23T13:33:48;13.70;49.90
60848;DHT22;46681;47.696;9.140;2024-02-23T13:36:14;13.60;49.70
60848;DHT22;46681;47.696;9.140;2024-02-23T13:38:55;13.60;49.80
60848;DHT22;46681;47.696;9.140;2024-02-23T13:41:23;13.60;49.70
60848;DHT22;46681;47.696;9.140;2024-02-23T13:43:48;13.70;50.10
60848;DHT22;46681;47.696;9.140;2024-02-23T13:46:15;13.70;49.70
60848;DHT22;46681;47.696;9.140;2024-02-23T13:48:43;13.80;49.60
60848;DHT22;46681;47.696;9.140;2024-02-23T13:51:16;13.80;49.60
60848;DHT22;46681;47.696;9.140;2024-02-23T13:53:41;13.80;49.40
60848;DHT22;46681;47.696;9.140;2024-02-23T13:56:21;13.90;49.30
60848;DHT22;46681;47.696;9.140;2024-02-23T13:59:00;14.00;48.90
60848;DHT22;46681;47.696;9.140;2024-02-23T14:01:26;14.40;48.00
60848;DHT22;46681;47.696;9.140;2024-02-23T14:03:52;14.80;47.00
60848;DHT22;46681;47.696;9.140;2024-02-23T14:06:21;14.90;46.10
60848;DHT22;46681;47.696;9.140;2024-02-23T14:08:49;14.90;45.80
60848;DHT22;46681;47.696;9.140;2024-02-23T14:11:15;14.90;46.00
60848;DHT22;46681;47.696;9.140;2024-02-23T14:13:45;15.00;45.50
60848;DHT22;46681;47.696;9.140;2024-02-23T14:16:27;15.00;45.40
60848;DHT22;46681;47.696;9.140;2024-02-23T14:18:52;14.90;45.70
60848;DHT22;46681;47.696;9.140;2024-02-23T14:21:18;14.90;45.80
60848;DHT22;46681;47.696;9.140;2024-02-23T14:23:51;14.90;46.10
60848;DHT22;46681;47.696;9.140;2024-02-23T14:26:25;14.80;46.00
60848;DHT22;46681;47.696;9.140;2024-02-23T14:28:52;14.80;46.50
60848;DHT22;46681;47.696;9.140;2024-02-23T14:31:22;14.80;46.50
60848;DHT22;46681;47.696;9.140;2024-02-23T14:33:47;14.80;46.40
60848;DHT22;46681;47.696;9.140;2024-02-23T14:36:13;14.80;45.40
60848;DHT22;46681;47.696;9.140;2024-02-23T14:38:48;14.90;45.60
60848;DHT22;46681;47.696;9.140;2024-02-23T14:41:14;14.80;45.40
60848;DHT22;46681;47.696;9.140;2024-02-23T14:43:40;14.80;46.90
60848;DHT22;46681;47.696;9.140;2024-02-23T14:46:13;14.70;47.30
60848;DHT22;46681;47.696;9.140;2024-02-23T14:48:42;14.60;47.40
60848;DHT22;46681;47.696;9.140;2024-02-23T14:51:14;14.50;47.50
60848;DHT22;46681;47.696;9.140;2024-02-23T14:53:43;14.40;47.80
60848;DHT22;46681;47.696;9.140;2024-02-23T14:56:11;14.40;47.80
60848;DHT22;46681;47.696;9.140;2024-02-23T14:58:40;14.30;47.90
60848;DHT22;46681;47.696;9.140;2024-02-23T15:01:06;14.30;48.00
60848;DHT22;46681;47.696;9.140;2024-02-23T15:03:33;14.20;48.10
60848;DHT22;46681;47.696;9.140;2024-02-23T15:06:13;14.20;48.40
60848;DHT22;46681;47.696;9.140;2024-02-23T15:08:39;14.20;48.40
60848;DHT22;46681;47.696;9.140;2024-02-23T15:11:08;14.10;48.40
60848;DHT22;46681;47.696;9.140;2024-02-23T15:13:35;14.10;48.30
60848;DHT22;46681;47.696;9.140;2024-02-23T15:16:03;14.00;48.50
60848;DHT22;46681;47.696;9.140;2024-02-23T15:18:30;14.00;48.60
60848;DHT22;46681;47.696;9.140;2024-02-23T15:21:03;14.00;48.70
60848;DHT22;46681;47.696;9.140;2024-02-23T15:23:29;13.90;48.80
60848;DHT22;46681;47.696;9.140;2024-02-23T15:25:57;13.90;48.80
60848;DHT22;46681;47.696;9.140;2024-02-23T15:28:22;13.80;48.80
60848;DHT22;46681;47.696;9.140;2024-02-23T15:30:57;13.80;48.80
60848;DHT22;46681;47.696;9.140;2024-02-23T15:33:24;13.80;48.90
60848;DHT22;46681;47.696;9.140;2024-02-23T15:35:58;13.80;49.00
60848;DHT22;46681;47.696;9.140;2024-02-23T15:38:25;13.70;49.00